Corning, AR

5:44 PM CST on November 25, 2014 (GMT -0600)
Corning | Change Station
CLOSE
Current Station
Airport
Location: Corning,
Elevation: 292 ft
Nearby Weather Stations

Elev 292 ft 36.40 °N, 90.65 °W | Updated 9 minutes ago

Clear
Clear
39 °F
Feels Like 34 °F
N
7
Wind Variable Wind from SSE

Today
High -- | Low -- °F
--% Chance of Precip.
Yesterday
High -- | Low -- °F
Precip. -- in
6:49 AM 4:48 PM
Waxing Crescent, 14% visible
Pressure 30.18 in
Visibility 10.0 miles
Clouds Clear
Windchill 34 °F
Dew Point 28 °F
Humidity 65%
Rainfall 0.00 in
Snow Depth Not available.
UV 0 out of 12
Pollen 1.60 out of 12
Air Quality Not available.
Flu Activity Not available.
METAR K4M9 252335Z AUTO 16006KT 10SM CLR 04/M02 A3018 RMK AO2

More Conditions Fewer Conditions

Pressure 30.18 in
Visibility 10.0 miles
Clouds Clear
Windchill 34 °F
Dew Point 28 °F
Humidity 65%
Rainfall 0.00 in
Snow Depth Not available.
UV 0 out of 12
Pollen 1.60 out of 12
Air Quality Not available.
Flu Activity Not available.
METAR K4M9 252335Z AUTO 16006KT 10SM CLR 04/M02 A3018 RMK AO2

More Conditions Fewer Conditions

10-Day Weather Forecast

Almanac

Astronomy

Nov. 25, 2014 Rise Set
Actual Time
Civil Twilight
Nautical Twilight
Astronomical Twilight
Moon
Length of Visible Light
Length of Day
Tomorrow will be .
, % of the Moon is Illuminated

Today's Extremes

State Highs State Lows

Community

WunderPhotos

Upload Photos

1,773,624 photos uploaded!

WunderBlogs® & News

Nearby

Air Quality

  Air Quality AQ Index Pollutant
Not available.

Snow Depth

Station Depth Elevation

Earthquake Activity

City Distance Mag. Time & Date
Minimum magnitude displayed is 2.5.

Coastal Water Temperatures

Place Temperature

Nearby Weather Stations